sensor_id;sensor_type;location;lat;lon;timestamp;temperature;humidity
26691;DHT22;14307;51.718;8.938;2023-05-07T00:01:57;12.60;99.90
26691;DHT22;14307;51.718;8.938;2023-05-07T00:04:24;12.50;99.90
26691;DHT22;14307;51.718;8.938;2023-05-07T00:06:51;12.50;99.90
26691;DHT22;14307;51.718;8.938;2023-05-07T00:09:18;12.50;99.90
26691;DHT22;14307;51.718;8.938;2023-05-07T00:11:44;12.40;99.90
26691;DHT22;14307;51.718;8.938;2023-05-07T00:14:11;12.40;99.90
26691;DHT22;14307;51.718;8.938;2023-05-07T00:16:38;12.40;99.90
26691;DHT22;14307;51.718;8.938;2023-05-07T00:19:05;12.40;99.90
26691;DHT22;14307;51.718;8.938;2023-05-07T00:21:31;12.50;99.90
26691;DHT22;14307;51.718;8.938;2023-05-07T00:23:58;12.40;99.90
26691;DHT22;14307;51.718;8.938;2023-05-07T00:26:25;12.40;99.90
26691;DHT22;14307;51.718;8.938;2023-05-07T00:28:52;12.40;99.90
26691;DHT22;14307;51.718;8.938;2023-05-07T00:31:18;12.40;99.90
26691;DHT22;14307;51.718;8.938;2023-05-07T00:33:45;12.30;99.90
26691;DHT22;14307;51.718;8.938;2023-05-07T00:36:12;12.30;99.90
26691;DHT22;14307;51.718;8.938;2023-05-07T00:38:38;12.30;99.90
26691;DHT22;14307;51.718;8.938;2023-05-07T00:41:05;12.30;99.90
26691;DHT22;14307;51.718;8.938;2023-05-07T00:43:33;12.20;99.90
26691;DHT22;14307;51.718;8.938;2023-05-07T00:45:59;12.20;99.90
26691;DHT22;14307;51.718;8.938;2023-05-07T00:48:27;12.20;99.90
26691;DHT22;14307;51.718;8.938;2023-05-07T00:50:54;12.20;99.90
26691;DHT22;14307;51.718;8.938;2023-05-07T00:53:20;12.20;99.90
26691;DHT22;14307;51.718;8.938;2023-05-07T00:55:48;12.20;99.90
26691;DHT22;14307;51.718;8.938;2023-05-07T00:58:15;12.20;99.90
26691;DHT22;14307;51.718;8.938;2023-05-07T01:00:42;12.10;99.90
26691;DHT22;14307;51.718;8.938;2023-05-07T01:03:09;12.20;99.90
26691;DHT22;14307;51.718;8.938;2023-05-07T01:05:36;12.20;99.90
26691;DHT22;14307;51.718;8.938;2023-05-07T01:08:04;12.10;99.90
26691;DHT22;14307;51.718;8.938;2023-05-07T01:10:31;12.10;99.90
26691;DHT22;14307;51.718;8.938;2023-05-07T01:12:59;12.10;99.90
26691;DHT22;14307;51.718;8.938;2023-05-07T01:15:27;12.10;99.90
26691;DHT22;14307;51.718;8.938;2023-05-07T01:17:55;12.10;99.90
26691;DHT22;14307;51.718;8.938;2023-05-07T01:20:29;12.00;99.90
26691;DHT22;14307;51.718;8.938;2023-05-07T01:22:57;12.00;99.90
26691;DHT22;14307;51.718;8.938;2023-05-07T01:25:24;11.90;99.90
26691;DHT22;14307;51.718;8.938;2023-05-07T01:27:54;11.80;99.90
26691;DHT22;14307;51.718;8.938;2023-05-07T01:30:25;11.90;99.90
26691;DHT22;14307;51.718;8.938;2023-05-07T01:33:09;11.90;99.90
26691;DHT22;14307;51.718;8.938;2023-05-07T01:35:40;11.90;99.90
26691;DHT22;14307;51.718;8.938;2023-05-07T01:38:08;11.80;99.90
26691;DHT22;14307;51.718;8.938;2023-05-07T01:40:35;11.80;99.90
26691;DHT22;14307;51.718;8.938;2023-05-07T01:43:02;11.90;99.90
26691;DHT22;14307;51.718;8.938;2023-05-07T01:45:31;11.90;99.90
26691;DHT22;14307;51.718;8.938;2023-05-07T01:47:58;11.80;99.90
26691;DHT22;14307;51.718;8.938;2023-05-07T01:50:27;11.90;99.90
26691;DHT22;14307;51.718;8.938;2023-05-07T01:52:54;11.90;99.90
26691;DHT22;14307;51.718;8.938;2023-05-07T01:55:20;11.90;99.90
26691;DHT22;14307;51.718;8.938;2023-05-07T01:57:48;12.00;99.90
26691;DHT22;14307;51.718;8.938;2023-05-07T02:00:15;11.90;99.90
26691;DHT22;14307;51.718;8.938;2023-05-07T02:02:42;12.00;99.90
26691;DHT22;14307;51.718;8.938;2023-05-07T02:05:19;11.80;99.90
26691;DHT22;14307;51.718;8.938;2023-05-07T02:07:51;11.70;99.90
26691;DHT22;14307;51.718;8.938;2023-05-07T02:10:18;11.60;99.90
26691;DHT22;14307;51.718;8.938;2023-05-07T02:12:45;11.60;99.90
26691;DHT22;14307;51.718;8.938;2023-05-07T02:15:12;11.60;99.90
26691;DHT22;14307;51.718;8.938;2023-05-07T02:18:07;11.60;99.90
26691;DHT22;14307;51.718;8.938;2023-05-07T02:20:34;11.70;99.90
26691;DHT22;14307;51.718;8.938;2023-05-07T02:23:01;11.60;99.90
26691;DHT22;14307;51.718;8.938;2023-05-07T02:25:29;11.50;99.90
26691;DHT22;14307;51.718;8.938;2023-05-07T02:27:57;11.40;99.90
26691;DHT22;14307;51.718;8.938;2023-05-07T02:30:37;11.40;99.90
26691;DHT22;14307;51.718;8.938;2023-05-07T02:33:04;11.40;99.90
26691;DHT22;14307;51.718;8.938;2023-05-07T02:35:31;11.40;99.90
26691;DHT22;14307;51.718;8.938;2023-05-07T02:37:58;11.40;99.90
26691;DHT22;14307;51.718;8.938;2023-05-07T02:40:25;11.30;99.90
26691;DHT22;14307;51.718;8.938;2023-05-07T02:42:52;11.30;99.90
26691;DHT22;14307;51.718;8.938;2023-05-07T02:45:19;11.30;99.90
26691;DHT22;14307;51.718;8.938;2023-05-07T02:47:49;11.30;99.90
26691;DHT22;14307;51.718;8.938;2023-05-07T02:50:15;11.20;99.90
26691;DHT22;14307;51.718;8.938;2023-05-07T02:52:42;11.10;99.90
26691;DHT22;14307;51.718;8.938;2023-05-07T02:55:09;11.10;99.90
26691;DHT22;14307;51.718;8.938;2023-05-07T02:57:37;11.10;99.90
26691;DHT22;14307;51.718;8.938;2023-05-07T03:00:23;11.10;99.90
26691;DHT22;14307;51.718;8.938;2023-05-07T03:03:16;11.20;99.90
26691;DHT22;14307;51.718;8.938;2023-05-07T03:05:43;11.10;99.90
26691;DHT22;14307;51.718;8.938;2023-05-07T03:08:10;11.10;99.90
26691;DHT22;14307;51.718;8.938;2023-05-07T03:10:37;11.10;99.90
26691;DHT22;14307;51.718;8.938;2023-05-07T03:13:04;11.10;99.90
26691;DHT22;14307;51.718;8.938;2023-05-07T03:15:31;11.10;99.90
26691;DHT22;14307;51.718;8.938;2023-05-07T03:17:58;11.10;99.90
26691;DHT22;14307;51.718;8.938;2023-05-07T03:20:25;11.00;99.90
26691;DHT22;14307;51.718;8.938;2023-05-07T03:22:52;11.00;99.90
26691;DHT22;14307;51.718;8.938;2023-05-07T03:25:19;11.00;99.90
26691;DHT22;14307;51.718;8.938;2023-05-07T03:27:45;11.00;99.90
26691;DHT22;14307;51.718;8.938;2023-05-07T03:30:13;11.00;99.90
26691;DHT22;14307;51.718;8.938;2023-05-07T03:32:39;11.00;99.90
26691;DHT22;14307;51.718;8.938;2023-05-07T03:35:10;11.00;99.90
26691;DHT22;14307;51.718;8.938;2023-05-07T03:37:38;11.00;99.90
26691;DHT22;14307;51.718;8.938;2023-05-07T03:40:05;10.90;99.90
26691;DHT22;14307;51.718;8.938;2023-05-07T03:42:40;10.90;99.90
26691;DHT22;14307;51.718;8.938;2023-05-07T03:45:08;10.80;99.90
26691;DHT22;14307;51.718;8.938;2023-05-07T03:47:36;10.90;99.90
26691;DHT22;14307;51.718;8.938;2023-05-07T03:50:05;10.90;99.90
26691;DHT22;14307;51.718;8.938;2023-05-07T03:52:32;10.90;99.90
26691;DHT22;14307;51.718;8.938;2023-05-07T03:55:01;10.80;99.90
26691;DHT22;14307;51.718;8.938;2023-05-07T03:57:29;10.80;99.90
26691;DHT22;14307;51.718;8.938;2023-05-07T03:59:58;10.90;99.90
26691;DHT22;14307;51.718;8.938;2023-05-07T04:02:25;10.90;99.90
26691;DHT22;14307;51.718;8.938;2023-05-07T04:04:52;10.90;99.90
26691;DHT22;14307;51.718;8.938;2023-05-07T04:07:19;11.00;99.90
26691;DHT22;14307;51.718;8.938;2023-05-07T04:09:49;10.80;99.90
26691;DHT22;14307;51.718;8.938;2023-05-07T04:12:16;10.80;99.90
26691;DHT22;14307;51.718;8.938;2023-05-07T04:14:42;10.80;99.90
26691;DHT22;14307;51.718;8.938;2023-05-07T04:17:09;10.80;99.90
26691;DHT22;14307;51.718;8.938;2023-05-07T04:19:37;10.80;99.90
26691;DHT22;14307;51.718;8.938;2023-05-07T04:22:04;10.90;99.90
26691;DHT22;14307;51.718;8.938;2023-05-07T04:24:32;10.80;99.90
26691;DHT22;14307;51.718;8.938;2023-05-07T04:27:02;10.80;99.90
26691;DHT22;14307;51.718;8.938;2023-05-07T04:29:29;10.80;99.90
26691;DHT22;14307;51.718;8.938;2023-05-07T04:31:56;10.90;99.90
26691;DHT22;14307;51.718;8.938;2023-05-07T04:34:26;10.80;99.90
26691;DHT22;14307;51.718;8.938;2023-05-07T04:36:53;10.90;99.90
26691;DHT22;14307;51.718;8.938;2023-05-07T04:39:19;10.90;99.90
26691;DHT22;14307;51.718;8.938;2023-05-07T04:41:47;10.80;99.90
26691;DHT22;14307;51.718;8.938;2023-05-07T04:44:14;10.80;99.90
26691;DHT22;14307;51.718;8.938;2023-05-07T04:46:42;10.80;99.90
26691;DHT22;14307;51.718;8.938;2023-05-07T04:49:09;10.70;99.90
26691;DHT22;14307;51.718;8.938;2023-05-07T04:51:36;10.70;99.90
26691;DHT22;14307;51.718;8.938;2023-05-07T04:54:04;10.70;99.90
26691;DHT22;14307;51.718;8.938;2023-05-07T04:56:31;10.90;99.90
26691;DHT22;14307;51.718;8.938;2023-05-07T04:58:59;10.90;99.90
26691;DHT22;14307;51.718;8.938;2023-05-07T05:01:27;10.80;99.90
26691;DHT22;14307;51.718;8.938;2023-05-07T05:03:54;10.90;99.90
26691;DHT22;14307;51.718;8.938;2023-05-07T05:06:21;10.80;99.90
26691;DHT22;14307;51.718;8.938;2023-05-07T05:08:49;10.90;99.90
26691;DHT22;14307;51.718;8.938;2023-05-07T05:11:15;10.80;99.90
26691;DHT22;14307;51.718;8.938;2023-05-07T05:13:42;10.90;99.90
26691;DHT22;14307;51.718;8.938;2023-05-07T05:16:15;10.70;99.90
26691;DHT22;14307;51.718;8.938;2023-05-07T05:18:42;10.70;99.90
26691;DHT22;14307;51.718;8.938;2023-05-07T05:21:10;10.70;99.90
26691;DHT22;14307;51.718;8.938;2023-05-07T05:23:39;10.70;99.90
26691;DHT22;14307;51.718;8.938;2023-05-07T05:26:05;10.70;99.90
26691;DHT22;14307;51.718;8.938;2023-05-07T05:28:33;10.70;99.90
26691;DHT22;14307;51.718;8.938;2023-05-07T05:31:01;10.70;99.90
26691;DHT22;14307;51.718;8.938;2023-05-07T05:33:32;10.80;99.90
26691;DHT22;14307;51.718;8.938;2023-05-07T05:36:03;10.90;99.90
26691;DHT22;14307;51.718;8.938;2023-05-07T05:38:30;10.80;99.90
26691;DHT22;14307;51.718;8.938;2023-05-07T05:40:56;10.80;99.90
26691;DHT22;14307;51.718;8.938;2023-05-07T05:43:23;10.70;99.90
26691;DHT22;14307;51.718;8.938;2023-05-07T05:45:50;10.70;99.90
26691;DHT22;14307;51.718;8.938;2023-05-07T05:48:17;10.60;99.90
26691;DHT22;14307;51.718;8.938;2023-05-07T05:50:44;10.70;99.90
26691;DHT22;14307;51.718;8.938;2023-05-07T05:53:11;10.70;99.90
26691;DHT22;14307;51.718;8.938;2023-05-07T05:55:39;10.70;99.90
26691;DHT22;14307;51.718;8.938;2023-05-07T05:58:05;10.70;99.90
26691;DHT22;14307;51.718;8.938;2023-05-07T06:00:36;10.70;99.90
26691;DHT22;14307;51.718;8.938;2023-05-07T06:03:04;10.60;99.90
26691;DHT22;14307;51.718;8.938;2023-05-07T06:05:31;10.50;99.90
26691;DHT22;14307;51.718;8.938;2023-05-07T06:07:58;10.50;99.90
26691;DHT22;14307;51.718;8.938;2023-05-07T06:10:29;10.60;99.90
26691;DHT22;14307;51.718;8.938;2023-05-07T06:12:57;10.70;99.90
26691;DHT22;14307;51.718;8.938;2023-05-07T06:15:24;10.70;99.90
26691;DHT22;14307;51.718;8.938;2023-05-07T06:17:51;10.80;99.90
26691;DHT22;14307;51.718;8.938;2023-05-07T06:20:18;10.70;99.90
26691;DHT22;14307;51.718;8.938;2023-05-07T06:22:45;10.80;99.90
26691;DHT22;14307;51.718;8.938;2023-05-07T06:25:13;10.90;99.90
26691;DHT22;14307;51.718;8.938;2023-05-07T06:27:41;10.90;99.90
26691;DHT22;14307;51.718;8.938;2023-05-07T06:30:08;10.90;99.90
26691;DHT22;14307;51.718;8.938;2023-05-07T06:32:36;10.90;99.90
26691;DHT22;14307;51.718;8.938;2023-05-07T06:35:03;10.90;99.90
26691;DHT22;14307;51.718;8.938;2023-05-07T06:37:30;11.00;99.90
26691;DHT22;14307;51.718;8.938;2023-05-07T06:40:04;11.10;99.90
26691;DHT22;14307;51.718;8.938;2023-05-07T06:42:33;11.20;99.90
26691;DHT22;14307;51.718;8.938;2023-05-07T06:45:16;11.20;99.90
26691;DHT22;14307;51.718;8.938;2023-05-07T06:47:43;11.40;99.90
26691;DHT22;14307;51.718;8.938;2023-05-07T06:50:10;11.30;99.90
26691;DHT22;14307;51.718;8.938;2023-05-07T06:52:38;11.40;99.90
26691;DHT22;14307;51.718;8.938;2023-05-07T06:55:06;11.30;99.90
26691;DHT22;14307;51.718;8.938;2023-05-07T06:57:33;11.20;99.90
26691;DHT22;14307;51.718;8.938;2023-05-07T06:59:59;11.10;99.90
26691;DHT22;14307;51.718;8.938;2023-05-07T07:02:26;11.10;99.90
26691;DHT22;14307;51.718;8.938;2023-05-07T07:04:53;11.20;99.90
26691;DHT22;14307;51.718;8.938;2023-05-07T07:07:20;11.20;99.90
26691;DHT22;14307;51.718;8.938;2023-05-07T07:09:49;11.20;99.90
26691;DHT22;14307;51.718;8.938;2023-05-07T07:12:17;11.30;99.90
26691;DHT22;14307;51.718;8.938;2023-05-07T07:14:44;11.30;99.90
26691;DHT22;14307;51.718;8.938;2023-05-07T07:17:12;11.30;99.90
26691;DHT22;14307;51.718;8.938;2023-05-07T07:19:38;11.30;99.90
26691;DHT22;14307;51.718;8.938;2023-05-07T07:22:06;11.30;99.90
26691;DHT22;14307;51.718;8.938;2023-05-07T07:24:33;11.30;99.90
26691;DHT22;14307;51.718;8.938;2023-05-07T07:27:03;11.40;99.90
26691;DHT22;14307;51.718;8.938;2023-05-07T07:29:32;11.40;99.90
26691;DHT22;14307;51.718;8.938;2023-05-07T07:31:59;11.40;99.90
26691;DHT22;14307;51.718;8.938;2023-05-07T07:34:26;11.40;99.90
26691;DHT22;14307;51.718;8.938;2023-05-07T07:36:53;11.40;99.90
26691;DHT22;14307;51.718;8.938;2023-05-07T07:39:20;11.40;99.90
26691;DHT22;14307;51.718;8.938;2023-05-07T07:41:49;11.60;99.90
26691;DHT22;14307;51.718;8.938;2023-05-07T07:44:17;11.70;99.90
26691;DHT22;14307;51.718;8.938;2023-05-07T07:46:49;11.80;99.90
26691;DHT22;14307;51.718;8.938;2023-05-07T07:49:17;11.90;99.90
26691;DHT22;14307;51.718;8.938;2023-05-07T07:51:44;12.00;99.90
26691;DHT22;14307;51.718;8.938;2023-05-07T07:54:12;12.00;99.90
26691;DHT22;14307;51.718;8.938;2023-05-07T07:56:39;12.00;99.90
26691;DHT22;14307;51.718;8.938;2023-05-07T07:59:07;12.00;99.90
26691;DHT22;14307;51.718;8.938;2023-05-07T08:01:37;12.00;99.90
26691;DHT22;14307;51.718;8.938;2023-05-07T08:04:04;12.20;99.90
26691;DHT22;14307;51.718;8.938;2023-05-07T08:06:36;12.20;99.90
26691;DHT22;14307;51.718;8.938;2023-05-07T08:09:03;12.20;99.90
26691;DHT22;14307;51.718;8.938;2023-05-07T08:11:30;12.30;99.90
26691;DHT22;14307;51.718;8.938;2023-05-07T08:13:58;12.30;99.90
26691;DHT22;14307;51.718;8.938;2023-05-07T08:16:24;12.50;99.90
26691;DHT22;14307;51.718;8.938;2023-05-07T08:18:52;12.40;99.90
26691;DHT22;14307;51.718;8.938;2023-05-07T08:21:19;12.30;99.90
26691;DHT22;14307;51.718;8.938;2023-05-07T08:23:46;12.30;99.90
26691;DHT22;14307;51.718;8.938;2023-05-07T08:26:13;12.50;99.90
26691;DHT22;14307;51.718;8.938;2023-05-07T08:28:40;12.50;99.90
26691;DHT22;14307;51.718;8.938;2023-05-07T08:31:07;12.60;99.90
26691;DHT22;14307;51.718;8.938;2023-05-07T08:33:36;12.70;99.90
26691;DHT22;14307;51.718;8.938;2023-05-07T08:36:05;12.80;99.90
26691;DHT22;14307;51.718;8.938;2023-05-07T08:38:32;12.70;99.90
26691;DHT22;14307;51.718;8.938;2023-05-07T08:40:59;12.80;99.90
26691;DHT22;14307;51.718;8.938;2023-05-07T08:43:28;12.90;99.90
26691;DHT22;14307;51.718;8.938;2023-05-07T08:46:00;12.90;99.90
26691;DHT22;14307;51.718;8.938;2023-05-07T08:48:32;12.70;99.90
26691;DHT22;14307;51.718;8.938;2023-05-07T08:51:06;13.00;99.90
26691;DHT22;14307;51.718;8.938;2023-05-07T08:53:34;12.90;99.90
26691;DHT22;14307;51.718;8.938;2023-05-07T08:56:02;12.80;99.90
26691;DHT22;14307;51.718;8.938;2023-05-07T08:58:29;12.80;99.90
26691;DHT22;14307;51.718;8.938;2023-05-07T09:00:56;12.80;99.90
26691;DHT22;14307;51.718;8.938;2023-05-07T09:03:24;12.90;99.90
26691;DHT22;14307;51.718;8.938;2023-05-07T09:05:53;13.00;99.90
26691;DHT22;14307;51.718;8.938;2023-05-07T09:08:25;13.20;99.90
26691;DHT22;14307;51.718;8.938;2023-05-07T09:10:53;13.20;99.90
26691;DHT22;14307;51.718;8.938;2023-05-07T09:13:22;13.10;99.90
26691;DHT22;14307;51.718;8.938;2023-05-07T09:15:49;13.00;99.90
26691;DHT22;14307;51.718;8.938;2023-05-07T09:18:16;13.00;99.90
26691;DHT22;14307;51.718;8.938;2023-05-07T09:20:45;12.90;99.90
26691;DHT22;14307;51.718;8.938;2023-05-07T09:23:12;13.10;99.90
26691;DHT22;14307;51.718;8.938;2023-05-07T09:25:42;13.30;99.90
26691;DHT22;14307;51.718;8.938;2023-05-07T09:28:15;13.50;99.90
26691;DHT22;14307;51.718;8.938;2023-05-07T09:30:42;13.60;99.90
26691;DHT22;14307;51.718;8.938;2023-05-07T09:33:11;13.60;99.90
26691;DHT22;14307;51.718;8.938;2023-05-07T09:35:41;13.70;99.90
26691;DHT22;14307;51.718;8.938;2023-05-07T09:38:14;13.70;99.90
26691;DHT22;14307;51.718;8.938;2023-05-07T09:40:42;13.50;99.90
26691;DHT22;14307;51.718;8.938;2023-05-07T09:43:13;13.40;99.90
26691;DHT22;14307;51.718;8.938;2023-05-07T09:45:54;13.40;99.90
26691;DHT22;14307;51.718;8.938;2023-05-07T09:48:25;13.30;99.90
26691;DHT22;14307;51.718;8.938;2023-05-07T09:50:55;13.40;99.90
26691;DHT22;14307;51.718;8.938;2023-05-07T09:53:30;13.50;99.90
26691;DHT22;14307;51.718;8.938;2023-05-07T09:56:00;13.80;99.90
26691;DHT22;14307;51.718;8.938;2023-05-07T09:58:31;13.70;99.90
26691;DHT22;14307;51.718;8.938;2023-05-07T10:00:59;14.10;99.90
26691;DHT22;14307;51.718;8.938;2023-05-07T10:03:27;14.10;99.90
26691;DHT22;14307;51.718;8.938;2023-05-07T10:06:01;14.30;99.90
26691;DHT22;14307;51.718;8.938;2023-05-07T10:08:30;14.10;99.90
26691;DHT22;14307;51.718;8.938;2023-05-07T10:10:59;14.20;99.90
26691;DHT22;14307;51.718;8.938;2023-05-07T10:13:28;14.00;99.90
26691;DHT22;14307;51.718;8.938;2023-05-07T10:15:58;14.40;99.90
26691;DHT22;14307;51.718;8.938;2023-05-07T10:18:30;14.80;99.90
26691;DHT22;14307;51.718;8.938;2023-05-07T10:21:13;14.60;99.90
26691;DHT22;14307;51.718;8.938;2023-05-07T10:23:45;14.80;99.90
26691;DHT22;14307;51.718;8.938;2023-05-07T10:26:15;14.60;99.90
26691;DHT22;14307;51.718;8.938;2023-05-07T10:28:47;14.50;99.90
26691;DHT22;14307;51.718;8.938;2023-05-07T10:34:15;14.60;99.90
26691;DHT22;14307;51.718;8.938;2023-05-07T10:36:44;14.90;99.90
26691;DHT22;14307;51.718;8.938;2023-05-07T10:39:12;14.70;99.90
26691;DHT22;14307;51.718;8.938;2023-05-07T10:41:40;14.50;99.90
26691;DHT22;14307;51.718;8.938;2023-05-07T10:44:07;14.10;99.90
26691;DHT22;14307;51.718;8.938;2023-05-07T10:46:35;14.10;99.90
26691;DHT22;14307;51.718;8.938;2023-05-07T10:49:16;14.20;99.90
26691;DHT22;14307;51.718;8.938;2023-05-07T10:52:17;14.70;99.90
26691;DHT22;14307;51.718;8.938;2023-05-07T11:01:48;14.90;99.90
26691;DHT22;14307;51.718;8.938;2023-05-07T11:04:17;14.80;99.90
26691;DHT22;14307;51.718;8.938;2023-05-07T11:15:11;14.50;99.90
26691;DHT22;14307;51.718;8.938;2023-05-07T11:17:58;14.70;99.90
26691;DHT22;14307;51.718;8.938;2023-05-07T11:20:53;14.60;99.90
26691;DHT22;14307;51.718;8.938;2023-05-07T11:26:11;14.50;99.90
26691;DHT22;14307;51.718;8.938;2023-05-07T11:28:41;14.80;99.90
26691;DHT22;14307;51.718;8.938;2023-05-07T11:31:10;14.90;99.90
26691;DHT22;14307;51.718;8.938;2023-05-07T11:33:38;15.10;99.90
26691;DHT22;14307;51.718;8.938;2023-05-07T11:36:09;15.50;99.90
26691;DHT22;14307;51.718;8.938;2023-05-07T11:38:42;15.30;99.90
26691;DHT22;14307;51.718;8.938;2023-05-07T11:41:08;15.00;99.90
26691;DHT22;14307;51.718;8.938;2023-05-07T11:43:35;15.50;99.90
26691;DHT22;14307;51.718;8.938;2023-05-07T11:46:11;15.60;99.90
26691;DHT22;14307;51.718;8.938;2023-05-07T11:48:38;15.10;99.90
26691;DHT22;14307;51.718;8.938;2023-05-07T11:51:06;15.20;99.90
26691;DHT22;14307;51.718;8.938;2023-05-07T11:53:37;15.60;99.90
26691;DHT22;14307;51.718;8.938;2023-05-07T11:56:15;15.40;99.90
26691;DHT22;14307;51.718;8.938;2023-05-07T11:58:43;15.40;99.90
26691;DHT22;14307;51.718;8.938;2023-05-07T12:01:11;15.40;99.90
26691;DHT22;14307;51.718;8.938;2023-05-07T12:03:42;15.40;99.90
26691;DHT22;14307;51.718;8.938;2023-05-07T12:06:10;15.70;99.90
26691;DHT22;14307;51.718;8.938;2023-05-07T12:08:39;15.90;99.90
26691;DHT22;14307;51.718;8.938;2023-05-07T12:11:14;16.10;99.90
26691;DHT22;14307;51.718;8.938;2023-05-07T12:13:41;16.00;99.90
26691;DHT22;14307;51.718;8.938;2023-05-07T12:16:08;15.80;99.90
26691;DHT22;14307;51.718;8.938;2023-05-07T12:18:36;16.30;99.90
26691;DHT22;14307;51.718;8.938;2023-05-07T12:21:04;16.30;99.90
26691;DHT22;14307;51.718;8.938;2023-05-07T12:23:31;16.20;99.90
26691;DHT22;14307;51.718;8.938;2023-05-07T12:25:59;15.70;99.90
26691;DHT22;14307;51.718;8.938;2023-05-07T12:28:29;15.50;99.90
26691;DHT22;14307;51.718;8.938;2023-05-07T12:30:57;15.50;99.90
26691;DHT22;14307;51.718;8.938;2023-05-07T12:33:26;15.50;99.90
26691;DHT22;14307;51.718;8.938;2023-05-07T12:35:54;15.50;99.90
26691;DHT22;14307;51.718;8.938;2023-05-07T12:38:22;15.60;99.90
26691;DHT22;14307;51.718;8.938;2023-05-07T12:40:55;15.40;99.90
26691;DHT22;14307;51.718;8.938;2023-05-07T12:43:27;15.70;99.90
26691;DHT22;14307;51.718;8.938;2023-05-07T12:45:56;15.70;99.90
26691;DHT22;14307;51.718;8.938;2023-05-07T12:48:23;15.70;99.90
26691;DHT22;14307;51.718;8.938;2023-05-07T12:50:54;15.90;99.90
26691;DHT22;14307;51.718;8.938;2023-05-07T12:53:22;15.90;99.90
26691;DHT22;14307;51.718;8.938;2023-05-07T12:55:51;16.30;99.90
26691;DHT22;14307;51.718;8.938;2023-05-07T12:58:19;16.40;99.90
26691;DHT22;14307;51.718;8.938;2023-05-07T13:00:50;16.30;99.90
26691;DHT22;14307;51.718;8.938;2023-05-07T13:03:22;16.00;99.90
26691;DHT22;14307;51.718;8.938;2023-05-07T13:05:51;16.00;99.90
26691;DHT22;14307;51.718;8.938;2023-05-07T13:08:29;16.10;99.90
26691;DHT22;14307;51.718;8.938;2023-05-07T13:10:58;15.80;99.90
26691;DHT22;14307;51.718;8.938;2023-05-07T13:13:25;15.70;99.90
26691;DHT22;14307;51.718;8.938;2023-05-07T13:15:53;15.60;99.90
26691;DHT22;14307;51.718;8.938;2023-05-07T13:18:20;15.90;99.90
26691;DHT22;14307;51.718;8.938;2023-05-07T13:20:47;16.30;99.90
26691;DHT22;14307;51.718;8.938;2023-05-07T13:23:14;16.10;99.90
26691;DHT22;14307;51.718;8.938;2023-05-07T13:25:41;16.30;99.90
26691;DHT22;14307;51.718;8.938;2023-05-07T13:28:08;16.40;99.90
26691;DHT22;14307;51.718;8.938;2023-05-07T13:34:41;16.40;99.90
26691;DHT22;14307;51.718;8.938;2023-05-07T13:37:08;16.40;99.90
26691;DHT22;14307;51.718;8.938;2023-05-07T13:39:37;16.60;99.90
26691;DHT22;14307;51.718;8.938;2023-05-07T13:42:03;16.30;99.90
26691;DHT22;14307;51.718;8.938;2023-05-07T13:44:30;16.30;99.90
26691;DHT22;14307;51.718;8.938;2023-05-07T13:46:57;16.20;99.90
26691;DHT22;14307;51.718;8.938;2023-05-07T13:49:23;16.40;99.90
26691;DHT22;14307;51.718;8.938;2023-05-07T13:51:50;16.30;99.90
26691;DHT22;14307;51.718;8.938;2023-05-07T13:54:17;16.30;99.90
26691;DHT22;14307;51.718;8.938;2023-05-07T13:56:44;16.30;99.90
26691;DHT22;14307;51.718;8.938;2023-05-07T13:59:10;16.60;99.90
26691;DHT22;14307;51.718;8.938;2023-05-07T14:01:37;16.70;99.90
26691;DHT22;14307;51.718;8.938;2023-05-07T14:04:04;16.90;99.90
26691;DHT22;14307;51.718;8.938;2023-05-07T14:06:30;17.00;99.90
26691;DHT22;14307;51.718;8.938;2023-05-07T14:08:57;17.40;99.90
26691;DHT22;14307;51.718;8.938;2023-05-07T14:11:24;17.20;99.90
26691;DHT22;14307;51.718;8.938;2023-05-07T14:13:51;17.10;99.90
26691;DHT22;14307;51.718;8.938;2023-05-07T14:16:17;17.10;99.90
26691;DHT22;14307;51.718;8.938;2023-05-07T14:18:44;16.90;99.90
26691;DHT22;14307;51.718;8.938;2023-05-07T14:21:11;16.90;99.90
26691;DHT22;14307;51.718;8.938;2023-05-07T14:23:37;16.60;99.90
26691;DHT22;14307;51.718;8.938;2023-05-07T14:26:04;16.80;99.90
26691;DHT22;14307;51.718;8.938;2023-05-07T14:28:31;16.90;99.90
26691;DHT22;14307;51.718;8.938;2023-05-07T14:30:58;16.80;99.90
26691;DHT22;14307;51.718;8.938;2023-05-07T14:33:25;16.60;99.90
26691;DHT22;14307;51.718;8.938;2023-05-07T14:35:51;16.20;99.90
26691;DHT22;14307;51.718;8.938;2023-05-07T14:38:19;16.20;99.90
26691;DHT22;14307;51.718;8.938;2023-05-07T14:40:46;16.40;99.90
26691;DHT22;14307;51.718;8.938;2023-05-07T14:43:12;16.50;99.90
26691;DHT22;14307;51.718;8.938;2023-05-07T14:45:39;16.70;99.90
26691;DHT22;14307;51.718;8.938;2023-05-07T14:48:06;16.40;99.90
26691;DHT22;14307;51.718;8.938;2023-05-07T14:50:33;16.20;99.90
26691;DHT22;14307;51.718;8.938;2023-05-07T14:52:59;16.20;99.90
26691;DHT22;14307;51.718;8.938;2023-05-07T14:55:26;16.20;99.90
26691;DHT22;14307;51.718;8.938;2023-05-07T14:57:53;16.00;99.90
26691;DHT22;14307;51.718;8.938;2023-05-07T15:00:19;16.00;99.90
26691;DHT22;14307;51.718;8.938;2023-05-07T15:02:46;16.00;99.90
26691;DHT22;14307;51.718;8.938;2023-05-07T15:05:13;15.80;99.90
26691;DHT22;14307;51.718;8.938;2023-05-07T15:07:41;15.70;99.90
26691;DHT22;14307;51.718;8.938;2023-05-07T15:10:08;15.80;99.90
26691;DHT22;14307;51.718;8.938;2023-05-07T15:12:34;15.80;99.90
26691;DHT22;14307;51.718;8.938;2023-05-07T15:15:01;15.70;99.90
26691;DHT22;14307;51.718;8.938;2023-05-07T15:17:28;15.80;99.90
26691;DHT22;14307;51.718;8.938;2023-05-07T15:19:55;16.00;99.90
26691;DHT22;14307;51.718;8.938;2023-05-07T15:22:22;15.90;99.90
26691;DHT22;14307;51.718;8.938;2023-05-07T15:24:48;15.80;99.90
26691;DHT22;14307;51.718;8.938;2023-05-07T15:27:15;15.90;99.90
26691;DHT22;14307;51.718;8.938;2023-05-07T15:29:43;15.90;99.90
26691;DHT22;14307;51.718;8.938;2023-05-07T15:32:10;15.90;99.90
26691;DHT22;14307;51.718;8.938;2023-05-07T15:34:37;15.90;99.90
26691;DHT22;14307;51.718;8.938;2023-05-07T15:37:03;15.80;99.90
26691;DHT22;14307;51.718;8.938;2023-05-07T15:39:30;15.60;99.90
26691;DHT22;14307;51.718;8.938;2023-05-07T15:41:57;15.60;99.90
26691;DHT22;14307;51.718;8.938;2023-05-07T15:44:24;15.30;99.90
26691;DHT22;14307;51.718;8.938;2023-05-07T15:46:55;15.20;99.90
26691;DHT22;14307;51.718;8.938;2023-05-07T15:49:21;15.30;99.90
26691;DHT22;14307;51.718;8.938;2023-05-07T15:51:48;15.20;99.90
26691;DHT22;14307;51.718;8.938;2023-05-07T15:54:17;15.30;99.90
26691;DHT22;14307;51.718;8.938;2023-05-07T15:56:46;15.50;99.90
26691;DHT22;14307;51.718;8.938;2023-05-07T15:59:15;15.40;99.90
26691;DHT22;14307;51.718;8.938;2023-05-07T16:01:42;15.50;99.90
26691;DHT22;14307;51.718;8.938;2023-05-07T16:04:10;15.70;99.90